sensor_id;sensor_type;location;lat;lon;timestamp;P1;durP1;ratioP1;P2;durP2;ratioP2
39242;SDS011;29823;47.404;8.566;2022-10-31T00:01:24;35.90;;;15.48;;
39242;SDS011;29823;47.404;8.566;2022-10-31T00:03:54;42.38;;;15.23;;
39242;SDS011;29823;47.404;8.566;2022-10-31T00:06:23;32.33;;;14.27;;
39242;SDS011;29823;47.404;8.566;2022-10-31T00:08:52;40.97;;;15.20;;
39242;SDS011;29823;47.404;8.566;2022-10-31T00:11:21;30.83;;;13.82;;
39242;SDS011;29823;47.404;8.566;2022-10-31T00:13:49;43.42;;;15.05;;
39242;SDS011;29823;47.404;8.566;2022-10-31T00:16:18;43.22;;;15.00;;
39242;SDS011;29823;47.404;8.566;2022-10-31T00:18:48;33.90;;;14.35;;
39242;SDS011;29823;47.404;8.566;2022-10-31T00:21:17;36.90;;;13.65;;
39242;SDS011;29823;47.404;8.566;2022-10-31T00:23:46;41.60;;;14.70;;
39242;SDS011;29823;47.404;8.566;2022-10-31T00:26:14;38.75;;;14.50;;
39242;SDS011;29823;47.404;8.566;2022-10-31T00:28:42;29.58;;;14.30;;
39242;SDS011;29823;47.404;8.566;2022-10-31T00:31:10;35.05;;;14.80;;
39242;SDS011;29823;47.404;8.566;2022-10-31T00:33:40;30.05;;;13.57;;
39242;SDS011;29823;47.404;8.566;2022-10-31T00:36:10;35.85;;;13.05;;
39242;SDS011;29823;47.404;8.566;2022-10-31T00:38:41;37.63;;;13.77;;
39242;SDS011;29823;47.404;8.566;2022-10-31T00:41:09;28.20;;;13.60;;
39242;SDS011;29823;47.404;8.566;2022-10-31T00:43:37;31.10;;;14.57;;
39242;SDS011;29823;47.404;8.566;2022-10-31T00:46:05;39.95;;;15.90;;
39242;SDS011;29823;47.404;8.566;2022-10-31T00:48:33;40.42;;;15.07;;
39242;SDS011;29823;47.404;8.566;2022-10-31T00:51:01;31.30;;;13.38;;
39242;SDS011;29823;47.404;8.566;2022-10-31T00:53:28;32.50;;;13.70;;
39242;SDS011;29823;47.404;8.566;2022-10-31T00:55:58;35.78;;;13.52;;
39242;SDS011;29823;47.404;8.566;2022-10-31T00:58:25;33.25;;;13.18;;
39242;SDS011;29823;47.404;8.566;2022-10-31T01:00:53;29.58;;;12.95;;
39242;SDS011;29823;47.404;8.566;2022-10-31T01:03:22;30.58;;;12.18;;
39242;SDS011;29823;47.404;8.566;2022-10-31T01:05:57;27.70;;;11.45;;
39242;SDS011;29823;47.404;8.566;2022-10-31T01:08:25;23.38;;;11.20;;
39242;SDS011;29823;47.404;8.566;2022-10-31T01:10:59;21.17;;;10.55;;
39242;SDS011;29823;47.404;8.566;2022-10-31T01:13:28;21.70;;;10.93;;
39242;SDS011;29823;47.404;8.566;2022-10-31T01:15:57;16.63;;;9.63;;
39242;SDS011;29823;47.404;8.566;2022-10-31T01:18:25;20.63;;;10.13;;
39242;SDS011;29823;47.404;8.566;2022-10-31T01:20:58;25.20;;;10.18;;
39242;SDS011;29823;47.404;8.566;2022-10-31T01:23:30;19.50;;;9.75;;
39242;SDS011;29823;47.404;8.566;2022-10-31T01:26:04;21.50;;;10.20;;
39242;SDS011;29823;47.404;8.566;2022-10-31T01:28:34;29.77;;;10.50;;
39242;SDS011;29823;47.404;8.566;2022-10-31T01:31:04;26.65;;;12.25;;
39242;SDS011;29823;47.404;8.566;2022-10-31T01:33:34;27.45;;;12.60;;
39242;SDS011;29823;47.404;8.566;2022-10-31T01:36:10;29.58;;;12.82;;
39242;SDS011;29823;47.404;8.566;2022-10-31T01:38:39;30.27;;;11.98;;
39242;SDS011;29823;47.404;8.566;2022-10-31T01:41:09;24.50;;;11.75;;
39242;SDS011;29823;47.404;8.566;2022-10-31T01:43:45;25.58;;;10.48;;
39242;SDS011;29823;47.404;8.566;2022-10-31T01:46:16;84.93;;;12.32;;
39242;SDS011;29823;47.404;8.566;2022-10-31T01:48:48;85.15;;;13.25;;
39242;SDS011;29823;47.404;8.566;2022-10-31T01:51:18;34.00;;;13.02;;
39242;SDS011;29823;47.404;8.566;2022-10-31T01:53:48;23.60;;;11.25;;
39242;SDS011;29823;47.404;8.566;2022-10-31T01:56:19;31.90;;;11.90;;
39242;SDS011;29823;47.404;8.566;2022-10-31T01:58:48;33.42;;;13.20;;
39242;SDS011;29823;47.404;8.566;2022-10-31T02:01:16;30.38;;;12.00;;
39242;SDS011;29823;47.404;8.566;2022-10-31T02:03:45;33.03;;;13.82;;
39242;SDS011;29823;47.404;8.566;2022-10-31T02:06:18;42.58;;;14.10;;
39242;SDS011;29823;47.404;8.566;2022-10-31T02:08:58;35.05;;;14.73;;
39242;SDS011;29823;47.404;8.566;2022-10-31T02:11:29;29.88;;;12.52;;
39242;SDS011;29823;47.404;8.566;2022-10-31T02:13:57;27.83;;;12.80;;
39242;SDS011;29823;47.404;8.566;2022-10-31T02:16:27;27.23;;;13.82;;
39242;SDS011;29823;47.404;8.566;2022-10-31T02:18:55;35.58;;;13.73;;
39242;SDS011;29823;47.404;8.566;2022-10-31T02:21:24;28.45;;;11.93;;
39242;SDS011;29823;47.404;8.566;2022-10-31T02:27:10;25.35;;;12.68;;
39242;SDS011;29823;47.404;8.566;2022-10-31T02:32:45;30.65;;;12.55;;
39242;SDS011;29823;47.404;8.566;2022-10-31T02:35:23;25.38;;;12.75;;
39242;SDS011;29823;47.404;8.566;2022-10-31T02:38:00;28.30;;;11.60;;
39242;SDS011;29823;47.404;8.566;2022-10-31T02:40:35;28.08;;;12.70;;
39242;SDS011;29823;47.404;8.566;2022-10-31T02:43:06;27.98;;;12.60;;
39242;SDS011;29823;47.404;8.566;2022-10-31T02:45:45;31.58;;;12.70;;
39242;SDS011;29823;47.404;8.566;2022-10-31T02:48:19;18.92;;;11.35;;
39242;SDS011;29823;47.404;8.566;2022-10-31T02:50:52;30.02;;;12.20;;
39242;SDS011;29823;47.404;8.566;2022-10-31T02:53:24;26.38;;;13.43;;
39242;SDS011;29823;47.404;8.566;2022-10-31T02:55:56;28.50;;;15.70;;
39242;SDS011;29823;47.404;8.566;2022-10-31T02:58:27;28.23;;;13.65;;
39242;SDS011;29823;47.404;8.566;2022-10-31T03:03:36;23.25;;;12.20;;
39242;SDS011;29823;47.404;8.566;2022-10-31T03:06:17;17.20;;;8.63;;
39242;SDS011;29823;47.404;8.566;2022-10-31T03:08:54;30.05;;;14.00;;
39242;SDS011;29823;47.404;8.566;2022-10-31T03:11:28;18.85;;;11.75;;
39242;SDS011;29823;47.404;8.566;2022-10-31T03:14:05;25.00;;;12.38;;
39242;SDS011;29823;47.404;8.566;2022-10-31T03:16:39;28.20;;;12.00;;
39242;SDS011;29823;47.404;8.566;2022-10-31T03:19:15;27.38;;;13.48;;
39242;SDS011;29823;47.404;8.566;2022-10-31T03:21:47;32.15;;;13.40;;
39242;SDS011;29823;47.404;8.566;2022-10-31T03:24:20;35.00;;;14.23;;
39242;SDS011;29823;47.404;8.566;2022-10-31T03:26:50;36.60;;;13.38;;
39242;SDS011;29823;47.404;8.566;2022-10-31T03:29:22;31.23;;;12.82;;
39242;SDS011;29823;47.404;8.566;2022-10-31T03:31:54;71.03;;;14.10;;
39242;SDS011;29823;47.404;8.566;2022-10-31T03:34:26;104.47;;;12.87;;
39242;SDS011;29823;47.404;8.566;2022-10-31T03:36:57;32.20;;;10.98;;
39242;SDS011;29823;47.404;8.566;2022-10-31T03:41:59;26.20;;;11.00;;
39242;SDS011;29823;47.404;8.566;2022-10-31T03:44:29;80.18;;;16.48;;
39242;SDS011;29823;47.404;8.566;2022-10-31T03:46:59;36.35;;;13.98;;
39242;SDS011;29823;47.404;8.566;2022-10-31T03:49:31;30.27;;;13.57;;
39242;SDS011;29823;47.404;8.566;2022-10-31T03:52:01;44.75;;;13.65;;
39242;SDS011;29823;47.404;8.566;2022-10-31T03:54:33;110.60;;;18.08;;
39242;SDS011;29823;47.404;8.566;2022-10-31T03:57:08;63.58;;;13.13;;
39242;SDS011;29823;47.404;8.566;2022-10-31T03:59:46;98.85;;;14.82;;
39242;SDS011;29823;47.404;8.566;2022-10-31T04:02:20;99.47;;;14.63;;
39242;SDS011;29823;47.404;8.566;2022-10-31T04:04:54;146.18;;;15.52;;
39242;SDS011;29823;47.404;8.566;2022-10-31T04:07:23;85.18;;;13.95;;
39242;SDS011;29823;47.404;8.566;2022-10-31T04:09:55;47.15;;;13.98;;
39242;SDS011;29823;47.404;8.566;2022-10-31T04:12:25;76.40;;;14.07;;
39242;SDS011;29823;47.404;8.566;2022-10-31T04:14:55;125.20;;;15.77;;
39242;SDS011;29823;47.404;8.566;2022-10-31T04:17:25;166.93;;;18.20;;
39242;SDS011;29823;47.404;8.566;2022-10-31T04:20:00;144.25;;;18.38;;
39242;SDS011;29823;47.404;8.566;2022-10-31T04:22:28;158.13;;;18.25;;
39242;SDS011;29823;47.404;8.566;2022-10-31T04:24:55;126.30;;;18.60;;
39242;SDS011;29823;47.404;8.566;2022-10-31T04:27:23;163.13;;;18.38;;
39242;SDS011;29823;47.404;8.566;2022-10-31T04:29:51;248.02;;;21.55;;
39242;SDS011;29823;47.404;8.566;2022-10-31T04:32:18;168.82;;;19.63;;
39242;SDS011;29823;47.404;8.566;2022-10-31T04:34:46;294.27;;;24.40;;
39242;SDS011;29823;47.404;8.566;2022-10-31T04:37:15;126.63;;;20.50;;
39242;SDS011;29823;47.404;8.566;2022-10-31T04:39:43;115.22;;;21.20;;
39242;SDS011;29823;47.404;8.566;2022-10-31T04:42:11;119.80;;;22.27;;
39242;SDS011;29823;47.404;8.566;2022-10-31T04:44:38;53.58;;;21.17;;
39242;SDS011;29823;47.404;8.566;2022-10-31T04:47:06;310.15;;;26.30;;
39242;SDS011;29823;47.404;8.566;2022-10-31T04:49:34;190.68;;;24.98;;
39242;SDS011;29823;47.404;8.566;2022-10-31T04:52:01;86.15;;;20.90;;
39242;SDS011;29823;47.404;8.566;2022-10-31T04:54:30;44.65;;;17.83;;
39242;SDS011;29823;47.404;8.566;2022-10-31T04:56:58;71.47;;;18.48;;
39242;SDS011;29823;47.404;8.566;2022-10-31T04:59:26;79.07;;;18.80;;
39242;SDS011;29823;47.404;8.566;2022-10-31T05:01:54;102.60;;;21.63;;
39242;SDS011;29823;47.404;8.566;2022-10-31T05:04:22;96.47;;;19.85;;
39242;SDS011;29823;47.404;8.566;2022-10-31T05:06:49;82.78;;;20.30;;
39242;SDS011;29823;47.404;8.566;2022-10-31T05:09:17;48.50;;;17.27;;
39242;SDS011;29823;47.404;8.566;2022-10-31T05:11:46;124.47;;;21.25;;
39242;SDS011;29823;47.404;8.566;2022-10-31T05:14:14;101.35;;;20.27;;
39242;SDS011;29823;47.404;8.566;2022-10-31T05:16:41;52.85;;;18.88;;
39242;SDS011;29823;47.404;8.566;2022-10-31T05:19:09;40.35;;;19.50;;
39242;SDS011;29823;47.404;8.566;2022-10-31T05:21:37;50.25;;;22.05;;
39242;SDS011;29823;47.404;8.566;2022-10-31T05:24:05;88.65;;;22.40;;
39242;SDS011;29823;47.404;8.566;2022-10-31T05:26:33;37.78;;;18.95;;
39242;SDS011;29823;47.404;8.566;2022-10-31T05:29:02;64.78;;;21.67;;
39242;SDS011;29823;47.404;8.566;2022-10-31T05:31:30;52.00;;;20.30;;
39242;SDS011;29823;47.404;8.566;2022-10-31T05:33:58;56.35;;;18.80;;
39242;SDS011;29823;47.404;8.566;2022-10-31T05:36:25;143.82;;;22.52;;
39242;SDS011;29823;47.404;8.566;2022-10-31T05:38:53;415.58;;;28.15;;
39242;SDS011;29823;47.404;8.566;2022-10-31T05:41:21;498.55;;;25.98;;
39242;SDS011;29823;47.404;8.566;2022-10-31T05:43:49;217.98;;;22.10;;
39242;SDS011;29823;47.404;8.566;2022-10-31T05:46:18;74.47;;;19.90;;
39242;SDS011;29823;47.404;8.566;2022-10-31T05:48:46;396.67;;;27.75;;
39242;SDS011;29823;47.404;8.566;2022-10-31T05:51:14;288.20;;;23.00;;
39242;SDS011;29823;47.404;8.566;2022-10-31T05:53:41;169.02;;;21.65;;
39242;SDS011;29823;47.404;8.566;2022-10-31T05:56:09;404.48;;;24.85;;
39242;SDS011;29823;47.404;8.566;2022-10-31T05:58:37;400.52;;;29.20;;
39242;SDS011;29823;47.404;8.566;2022-10-31T06:01:05;269.17;;;24.83;;
39242;SDS011;29823;47.404;8.566;2022-10-31T06:03:34;67.63;;;17.65;;
39242;SDS011;29823;47.404;8.566;2022-10-31T06:06:02;69.78;;;19.45;;
39242;SDS011;29823;47.404;8.566;2022-10-31T06:08:30;110.03;;;22.33;;
39242;SDS011;29823;47.404;8.566;2022-10-31T06:10:58;207.80;;;26.70;;
39242;SDS011;29823;47.404;8.566;2022-10-31T06:13:25;31.67;;;18.85;;
39242;SDS011;29823;47.404;8.566;2022-10-31T06:15:53;61.58;;;21.75;;
39242;SDS011;29823;47.404;8.566;2022-10-31T06:18:21;144.50;;;25.27;;
39242;SDS011;29823;47.404;8.566;2022-10-31T06:20:50;321.30;;;31.73;;
39242;SDS011;29823;47.404;8.566;2022-10-31T06:23:18;698.75;;;47.15;;
39242;SDS011;29823;47.404;8.566;2022-10-31T06:25:48;198.95;;;28.70;;
39242;SDS011;29823;47.404;8.566;2022-10-31T06:28:16;130.10;;;25.67;;
39242;SDS011;29823;47.404;8.566;2022-10-31T06:30:43;464.58;;;38.50;;
39242;SDS011;29823;47.404;8.566;2022-10-31T06:33:11;176.25;;;28.73;;
39242;SDS011;29823;47.404;8.566;2022-10-31T06:35:44;325.65;;;34.47;;
39242;SDS011;29823;47.404;8.566;2022-10-31T06:38:14;57.50;;;25.60;;
39242;SDS011;29823;47.404;8.566;2022-10-31T06:40:41;71.78;;;24.15;;
39242;SDS011;29823;47.404;8.566;2022-10-31T06:43:09;179.27;;;28.05;;
39242;SDS011;29823;47.404;8.566;2022-10-31T06:45:37;96.65;;;25.77;;
39242;SDS011;29823;47.404;8.566;2022-10-31T06:48:05;394.23;;;35.53;;
39242;SDS011;29823;47.404;8.566;2022-10-31T06:50:43;266.02;;;25.85;;
39242;SDS011;29823;47.404;8.566;2022-10-31T06:53:11;135.10;;;24.52;;
39242;SDS011;29823;47.404;8.566;2022-10-31T06:55:41;73.72;;;24.85;;
39242;SDS011;29823;47.404;8.566;2022-10-31T06:58:10;98.55;;;25.35;;
39242;SDS011;29823;47.404;8.566;2022-10-31T07:00:38;365.40;;;28.95;;
39242;SDS011;29823;47.404;8.566;2022-10-31T07:03:06;282.00;;;27.88;;
39242;SDS011;29823;47.404;8.566;2022-10-31T07:05:37;397.20;;;27.23;;
39242;SDS011;29823;47.404;8.566;2022-10-31T07:08:06;687.42;;;34.80;;
39242;SDS011;29823;47.404;8.566;2022-10-31T07:10:35;637.72;;;32.53;;
39242;SDS011;29823;47.404;8.566;2022-10-31T07:13:09;749.72;;;39.40;;
39242;SDS011;29823;47.404;8.566;2022-10-31T07:15:39;552.25;;;33.80;;
39242;SDS011;29823;47.404;8.566;2022-10-31T07:18:08;180.02;;;24.70;;
39242;SDS011;29823;47.404;8.566;2022-10-31T07:20:38;210.52;;;25.65;;
39242;SDS011;29823;47.404;8.566;2022-10-31T07:23:07;52.08;;;23.50;;
39242;SDS011;29823;47.404;8.566;2022-10-31T07:25:35;105.97;;;23.20;;
39242;SDS011;29823;47.404;8.566;2022-10-31T07:28:03;221.23;;;28.13;;
39242;SDS011;29823;47.404;8.566;2022-10-31T07:30:32;56.20;;;24.90;;
39242;SDS011;29823;47.404;8.566;2022-10-31T07:33:00;47.53;;;24.52;;
39242;SDS011;29823;47.404;8.566;2022-10-31T07:35:28;114.85;;;25.42;;
39242;SDS011;29823;47.404;8.566;2022-10-31T07:37:56;84.85;;;23.92;;
39242;SDS011;29823;47.404;8.566;2022-10-31T07:40:25;72.03;;;22.00;;
39242;SDS011;29823;47.404;8.566;2022-10-31T07:42:52;383.38;;;30.77;;
39242;SDS011;29823;47.404;8.566;2022-10-31T07:45:20;437.42;;;29.52;;
39242;SDS011;29823;47.404;8.566;2022-10-31T07:47:50;226.20;;;23.75;;
39242;SDS011;29823;47.404;8.566;2022-10-31T07:50:20;69.38;;;20.50;;
39242;SDS011;29823;47.404;8.566;2022-10-31T07:52:57;172.55;;;22.45;;
39242;SDS011;29823;47.404;8.566;2022-10-31T07:55:26;246.63;;;26.35;;
39242;SDS011;29823;47.404;8.566;2022-10-31T07:57:57;70.15;;;21.08;;
39242;SDS011;29823;47.404;8.566;2022-10-31T08:00:26;110.80;;;22.77;;
39242;SDS011;29823;47.404;8.566;2022-10-31T08:03:00;46.67;;;19.13;;
39242;SDS011;29823;47.404;8.566;2022-10-31T08:05:29;46.80;;;20.77;;
39242;SDS011;29823;47.404;8.566;2022-10-31T08:07:58;47.70;;;20.50;;
39242;SDS011;29823;47.404;8.566;2022-10-31T08:10:26;165.55;;;21.73;;
39242;SDS011;29823;47.404;8.566;2022-10-31T08:12:55;46.78;;;18.40;;
39242;SDS011;29823;47.404;8.566;2022-10-31T08:15:24;33.95;;;17.88;;
39242;SDS011;29823;47.404;8.566;2022-10-31T08:17:53;32.53;;;17.80;;
39242;SDS011;29823;47.404;8.566;2022-10-31T08:20:22;54.95;;;19.80;;
39242;SDS011;29823;47.404;8.566;2022-10-31T08:22:54;40.90;;;19.58;;
39242;SDS011;29823;47.404;8.566;2022-10-31T08:25:23;48.67;;;19.58;;
39242;SDS011;29823;47.404;8.566;2022-10-31T08:27:51;30.00;;;18.83;;
39242;SDS011;29823;47.404;8.566;2022-10-31T08:30:21;36.80;;;18.17;;
39242;SDS011;29823;47.404;8.566;2022-10-31T08:32:56;26.88;;;18.05;;
39242;SDS011;29823;47.404;8.566;2022-10-31T08:35:26;30.52;;;18.73;;
39242;SDS011;29823;47.404;8.566;2022-10-31T08:37:54;27.90;;;17.88;;
39242;SDS011;29823;47.404;8.566;2022-10-31T08:40:22;67.85;;;17.25;;
39242;SDS011;29823;47.404;8.566;2022-10-31T08:42:57;41.75;;;18.23;;
39242;SDS011;29823;47.404;8.566;2022-10-31T08:45:26;107.20;;;17.52;;
39242;SDS011;29823;47.404;8.566;2022-10-31T08:47:58;39.55;;;18.25;;
39242;SDS011;29823;47.404;8.566;2022-10-31T08:50:29;109.57;;;19.65;;
39242;SDS011;29823;47.404;8.566;2022-10-31T08:53:01;53.17;;;19.38;;
39242;SDS011;29823;47.404;8.566;2022-10-31T08:55:32;42.83;;;20.08;;
39242;SDS011;29823;47.404;8.566;2022-10-31T08:58:01;62.80;;;20.23;;
39242;SDS011;29823;47.404;8.566;2022-10-31T09:00:30;51.17;;;19.27;;
39242;SDS011;29823;47.404;8.566;2022-10-31T09:02:58;89.38;;;20.52;;
39242;SDS011;29823;47.404;8.566;2022-10-31T09:05:29;35.60;;;19.88;;
39242;SDS011;29823;47.404;8.566;2022-10-31T09:07:57;95.15;;;21.98;;
39242;SDS011;29823;47.404;8.566;2022-10-31T09:10:27;37.90;;;19.70;;
39242;SDS011;29823;47.404;8.566;2022-10-31T09:12:56;163.90;;;22.00;;
39242;SDS011;29823;47.404;8.566;2022-10-31T09:15:25;50.80;;;20.83;;
39242;SDS011;29823;47.404;8.566;2022-10-31T09:17:53;40.78;;;24.52;;
39242;SDS011;29823;47.404;8.566;2022-10-31T09:20:23;32.80;;;22.05;;
39242;SDS011;29823;47.404;8.566;2022-10-31T09:22:56;34.10;;;23.27;;
39242;SDS011;29823;47.404;8.566;2022-10-31T09:25:25;27.85;;;19.00;;
39242;SDS011;29823;47.404;8.566;2022-10-31T09:27:55;30.75;;;18.00;;
39242;SDS011;29823;47.404;8.566;2022-10-31T09:30:25;26.50;;;18.20;;
39242;SDS011;29823;47.404;8.566;2022-10-31T09:32:54;22.42;;;16.10;;
39242;SDS011;29823;47.404;8.566;2022-10-31T09:35:23;28.92;;;17.45;;
39242;SDS011;29823;47.404;8.566;2022-10-31T09:37:55;25.50;;;17.45;;
39242;SDS011;29823;47.404;8.566;2022-10-31T09:40:32;28.77;;;17.23;;
39242;SDS011;29823;47.404;8.566;2022-10-31T09:43:04;25.65;;;17.63;;
39242;SDS011;29823;47.404;8.566;2022-10-31T09:45:43;33.03;;;19.27;;
39242;SDS011;29823;47.404;8.566;2022-10-31T09:48:22;25.08;;;17.77;;
39242;SDS011;29823;47.404;8.566;2022-10-31T09:50:58;36.67;;;19.48;;
39242;SDS011;29823;47.404;8.566;2022-10-31T09:53:34;27.30;;;17.23;;
39242;SDS011;29823;47.404;8.566;2022-10-31T09:56:07;28.35;;;19.80;;
39242;SDS011;29823;47.404;8.566;2022-10-31T09:58:40;41.70;;;23.95;;
39242;SDS011;29823;47.404;8.566;2022-10-31T10:01:15;39.78;;;24.15;;
39242;SDS011;29823;47.404;8.566;2022-10-31T10:03:55;45.53;;;24.17;;
39242;SDS011;29823;47.404;8.566;2022-10-31T10:06:28;32.58;;;22.75;;
39242;SDS011;29823;47.404;8.566;2022-10-31T10:09:01;41.97;;;26.45;;
39242;SDS011;29823;47.404;8.566;2022-10-31T10:11:32;50.13;;;26.77;;
39242;SDS011;29823;47.404;8.566;2022-10-31T10:14:16;44.85;;;29.40;;
39242;SDS011;29823;47.404;8.566;2022-10-31T10:16:56;56.63;;;32.50;;
39242;SDS011;29823;47.404;8.566;2022-10-31T10:19:43;56.20;;;33.83;;
39242;SDS011;29823;47.404;8.566;2022-10-31T10:22:39;64.38;;;37.63;;
39242;SDS011;29823;47.404;8.566;2022-10-31T10:25:19;67.45;;;38.25;;
39242;SDS011;29823;47.404;8.566;2022-10-31T10:27:52;65.93;;;37.85;;
39242;SDS011;29823;47.404;8.566;2022-10-31T10:30:32;71.40;;;36.97;;
39242;SDS011;29823;47.404;8.566;2022-10-31T10:33:08;65.78;;;38.03;;
39242;SDS011;29823;47.404;8.566;2022-10-31T10:35:39;63.60;;;38.20;;
39242;SDS011;29823;47.404;8.566;2022-10-31T10:38:13;67.35;;;38.35;;
39242;SDS011;29823;47.404;8.566;2022-10-31T10:40:48;56.13;;;35.45;;
39242;SDS011;29823;47.404;8.566;2022-10-31T10:43:20;62.25;;;37.08;;
39242;SDS011;29823;47.404;8.566;2022-10-31T10:45:50;63.50;;;35.80;;
39242;SDS011;29823;47.404;8.566;2022-10-31T10:48:46;61.33;;;35.55;;
39242;SDS011;29823;47.404;8.566;2022-10-31T10:51:22;62.05;;;36.30;;
39242;SDS011;29823;47.404;8.566;2022-10-31T10:57:29;60.45;;;37.08;;
39242;SDS011;29823;47.404;8.566;2022-10-31T11:02:58;60.22;;;36.53;;
39242;SDS011;29823;47.404;8.566;2022-10-31T11:05:28;63.05;;;36.67;;
39242;SDS011;29823;47.404;8.566;2022-10-31T11:08:03;54.97;;;34.72;;
39242;SDS011;29823;47.404;8.566;2022-10-31T11:10:32;54.75;;;33.38;;
39242;SDS011;29823;47.404;8.566;2022-10-31T11:13:03;50.33;;;31.65;;
39242;SDS011;29823;47.404;8.566;2022-10-31T11:15:35;52.72;;;31.38;;
39242;SDS011;29823;47.404;8.566;2022-10-31T11:20:54;54.40;;;31.73;;
39242;SDS011;29823;47.404;8.566;2022-10-31T11:23:23;53.35;;;31.50;;
39242;SDS011;29823;47.404;8.566;2022-10-31T11:25:54;53.35;;;30.17;;
39242;SDS011;29823;47.404;8.566;2022-10-31T11:28:24;55.50;;;30.90;;
39242;SDS011;29823;47.404;8.566;2022-10-31T11:30:53;45.47;;;30.30;;
39242;SDS011;29823;47.404;8.566;2022-10-31T11:33:29;55.20;;;31.00;;
39242;SDS011;29823;47.404;8.566;2022-10-31T11:35:59;42.72;;;28.40;;
39242;SDS011;29823;47.404;8.566;2022-10-31T11:38:32;43.85;;;29.08;;
39242;SDS011;29823;47.404;8.566;2022-10-31T11:41:06;41.28;;;28.55;;
39242;SDS011;29823;47.404;8.566;2022-10-31T11:43:50;45.13;;;28.67;;
39242;SDS011;29823;47.404;8.566;2022-10-31T11:46:24;41.85;;;27.17;;
39242;SDS011;29823;47.404;8.566;2022-10-31T11:49:01;52.17;;;28.77;;
39242;SDS011;29823;47.404;8.566;2022-10-31T11:51:30;41.17;;;26.83;;
39242;SDS011;29823;47.404;8.566;2022-10-31T11:54:00;38.22;;;26.13;;
39242;SDS011;29823;47.404;8.566;2022-10-31T11:56:37;43.65;;;26.35;;
39242;SDS011;29823;47.404;8.566;2022-10-31T11:59:14;40.03;;;25.02;;
39242;SDS011;29823;47.404;8.566;2022-10-31T12:01:48;37.08;;;23.58;;
39242;SDS011;29823;47.404;8.566;2022-10-31T12:04:17;34.78;;;22.88;;
39242;SDS011;29823;47.404;8.566;2022-10-31T12:06:46;36.08;;;22.77;;
39242;SDS011;29823;47.404;8.566;2022-10-31T12:09:19;34.53;;;23.00;;
39242;SDS011;29823;47.404;8.566;2022-10-31T12:14:31;36.13;;;23.75;;
39242;SDS011;29823;47.404;8.566;2022-10-31T12:17:09;46.45;;;23.38;;
39242;SDS011;29823;47.404;8.566;2022-10-31T12:19:42;35.88;;;23.05;;
39242;SDS011;29823;47.404;8.566;2022-10-31T12:22:23;44.63;;;24.50;;
39242;SDS011;29823;47.404;8.566;2022-10-31T12:25:03;34.80;;;21.48;;
39242;SDS011;29823;47.404;8.566;2022-10-31T12:27:45;33.72;;;21.15;;
39242;SDS011;29823;47.404;8.566;2022-10-31T12:30:28;28.58;;;19.42;;
39242;SDS011;29823;47.404;8.566;2022-10-31T12:33:12;33.13;;;17.88;;
39242;SDS011;29823;47.404;8.566;2022-10-31T12:36:01;34.03;;;17.85;;
39242;SDS011;29823;47.404;8.566;2022-10-31T12:38:47;27.95;;;17.20;;
39242;SDS011;29823;47.404;8.566;2022-10-31T12:41:30;26.10;;;16.65;;
39242;SDS011;29823;47.404;8.566;2022-10-31T12:44:13;28.52;;;17.75;;
39242;SDS011;29823;47.404;8.566;2022-10-31T12:46:55;29.80;;;19.02;;
39242;SDS011;29823;47.404;8.566;2022-10-31T12:49:39;32.63;;;19.95;;
39242;SDS011;29823;47.404;8.566;2022-10-31T12:52:18;37.58;;;20.67;;
39242;SDS011;29823;47.404;8.566;2022-10-31T12:55:04;32.88;;;21.25;;
39242;SDS011;29823;47.404;8.566;2022-10-31T12:57:42;37.55;;;21.95;;
39242;SDS011;29823;47.404;8.566;2022-10-31T13:00:14;34.72;;;22.58;;
39242;SDS011;29823;47.404;8.566;2022-10-31T13:02:46;44.22;;;27.50;;
39242;SDS011;29823;47.404;8.566;2022-10-31T13:05:19;38.67;;;23.30;;
39242;SDS011;29823;47.404;8.566;2022-10-31T13:07:55;39.97;;;23.60;;
39242;SDS011;29823;47.404;8.566;2022-10-31T13:10:29;35.50;;;20.27;;
39242;SDS011;29823;47.404;8.566;2022-10-31T13:13:02;38.60;;;20.27;;
39242;SDS011;29823;47.404;8.566;2022-10-31T13:15:47;35.45;;;20.58;;
39242;SDS011;29823;47.404;8.566;2022-10-31T13:18:22;35.17;;;21.50;;
39242;SDS011;29823;47.404;8.566;2022-10-31T13:20:55;34.03;;;20.00;;
39242;SDS011;29823;47.404;8.566;2022-10-31T13:23:27;32.75;;;19.75;;
39242;SDS011;29823;47.404;8.566;2022-10-31T13:26:20;32.90;;;20.35;;
39242;SDS011;29823;47.404;8.566;2022-10-31T13:28:52;34.60;;;19.27;;
39242;SDS011;29823;47.404;8.566;2022-10-31T13:31:27;31.58;;;19.90;;
39242;SDS011;29823;47.404;8.566;2022-10-31T13:33:57;39.08;;;21.33;;
39242;SDS011;29823;47.404;8.566;2022-10-31T13:36:32;32.78;;;21.25;;
39242;SDS011;29823;47.404;8.566;2022-10-31T13:39:10;39.70;;;19.02;;
39242;SDS011;29823;47.404;8.566;2022-10-31T13:41:50;36.38;;;18.20;;
39242;SDS011;29823;47.404;8.566;2022-10-31T13:44:24;37.75;;;17.23;;
39242;SDS011;29823;47.404;8.566;2022-10-31T13:46:59;37.88;;;18.40;;
39242;SDS011;29823;47.404;8.566;2022-10-31T13:49:38;34.63;;;17.98;;
39242;SDS011;29823;47.404;8.566;2022-10-31T13:52:13;31.45;;;16.27;;
39242;SDS011;29823;47.404;8.566;2022-10-31T13:54:45;26.35;;;15.57;;
39242;SDS011;29823;47.404;8.566;2022-10-31T13:57:16;29.92;;;15.70;;
39242;SDS011;29823;47.404;8.566;2022-10-31T13:59:50;29.73;;;15.60;;
39242;SDS011;29823;47.404;8.566;2022-10-31T14:02:24;31.30;;;15.90;;
39242;SDS011;29823;47.404;8.566;2022-10-31T14:04:57;22.90;;;13.70;;
39242;SDS011;29823;47.404;8.566;2022-10-31T14:07:27;31.88;;;14.65;;
39242;SDS011;29823;47.404;8.566;2022-10-31T14:09:57;25.13;;;14.23;;
39242;SDS011;29823;47.404;8.566;2022-10-31T14:12:30;26.92;;;13.88;;
39242;SDS011;29823;47.404;8.566;2022-10-31T14:17:35;29.02;;;13.90;;
39242;SDS011;29823;47.404;8.566;2022-10-31T14:20:32;28.65;;;13.52;;
39242;SDS011;29823;47.404;8.566;2022-10-31T14:23:28;27.52;;;13.90;;
39242;SDS011;29823;47.404;8.566;2022-10-31T14:29:00;31.15;;;14.93;;
39242;SDS011;29823;47.404;8.566;2022-10-31T14:31:31;24.58;;;12.55;;
39242;SDS011;29823;47.404;8.566;2022-10-31T14:34:05;24.67;;;13.23;;
39242;SDS011;29823;47.404;8.566;2022-10-31T14:36:50;30.20;;;12.68;;
39242;SDS011;29823;47.404;8.566;2022-10-31T14:39:27;28.98;;;12.35;;
39242;SDS011;29823;47.404;8.566;2022-10-31T14:42:05;26.70;;;13.07;;
39242;SDS011;29823;47.404;8.566;2022-10-31T14:44:56;27.63;;;11.90;;
39242;SDS011;29823;47.404;8.566;2022-10-31T14:47:52;27.80;;;12.15;;
39242;SDS011;29823;47.404;8.566;2022-10-31T14:50:37;24.70;;;12.35;;
39242;SDS011;29823;47.404;8.566;2022-10-31T14:53:14;27.65;;;12.48;;
39242;SDS011;29823;47.404;8.566;2022-10-31T14:55:46;28.67;;;11.43;;
39242;SDS011;29823;47.404;8.566;2022-10-31T14:58:17;28.45;;;12.07;;
39242;SDS011;29823;47.404;8.566;2022-10-31T15:00:48;28.30;;;12.60;;
39242;SDS011;29823;47.404;8.566;2022-10-31T15:03:22;24.60;;;12.23;;
39242;SDS011;29823;47.404;8.566;2022-10-31T15:05:56;26.33;;;11.30;;
39242;SDS011;29823;47.404;8.566;2022-10-31T15:08:37;27.00;;;12.32;;
39242;SDS011;29823;47.404;8.566;2022-10-31T15:11:09;33.03;;;12.13;;
39242;SDS011;29823;47.404;8.566;2022-10-31T15:13:45;26.88;;;11.68;;
39242;SDS011;29823;47.404;8.566;2022-10-31T15:16:15;28.50;;;12.15;;